createdAt,value
2022-08-23T00:01:46.771Z,1.60
2022-08-23T00:04:19.557Z,1.20
2022-08-23T00:06:49.218Z,1.40
2022-08-23T00:09:18.222Z,1.80
2022-08-23T00:11:50.431Z,1.50
2022-08-23T00:14:23.718Z,1.40
2022-08-23T00:16:53.851Z,1.00
2022-08-23T00:19:23.827Z,1.40
2022-08-23T00:21:54.805Z,1.23
2022-08-23T00:24:24.077Z,1.20
2022-08-23T00:26:59.155Z,1.23
2022-08-23T00:29:30.896Z,1.60
2022-08-23T00:31:59.859Z,1.20
2022-08-23T00:34:29.763Z,1.10
2022-08-23T00:36:58.542Z,1.80
2022-08-23T00:39:27.748Z,1.40
2022-08-23T00:42:01.099Z,1.23
2022-08-23T00:44:49.868Z,1.23
2022-08-23T00:47:37.219Z,1.30
2022-08-23T00:50:19.994Z,2.63
2022-08-23T00:52:58.969Z,1.73
2022-08-23T00:55:28.469Z,1.53
2022-08-23T00:57:59.322Z,1.47
2022-08-23T01:00:28.299Z,2.57
2022-08-23T01:02:57.770Z,1.40
2022-08-23T01:05:37.684Z,1.43
2022-08-23T01:08:06.234Z,2.00
2022-08-23T01:10:39.003Z,1.40
2022-08-23T01:13:13.006Z,4.93
2022-08-23T01:15:44.802Z,1.30
2022-08-23T01:18:15.350Z,1.53
2022-08-23T01:20:49.828Z,2.03
2022-08-23T01:23:30.497Z,1.50
2022-08-23T01:25:59.519Z,1.40
2022-08-23T01:28:28.123Z,1.37
2022-08-23T01:30:57.149Z,1.40
2022-08-23T01:33:25.721Z,1.40
2022-08-23T01:35:55.577Z,1.30
2022-08-23T01:38:24.431Z,1.33
2022-08-23T01:40:54.699Z,1.93
2022-08-23T01:43:23.781Z,1.20
2022-08-23T01:45:53.253Z,1.60
2022-08-23T01:48:23.244Z,1.40
2022-08-23T01:50:51.845Z,1.50
2022-08-23T01:53:20.570Z,1.40
2022-08-23T01:55:49.495Z,1.50
2022-08-23T01:58:19.367Z,1.30
2022-08-23T02:00:48.129Z,1.73
2022-08-23T02:03:17.341Z,1.70
2022-08-23T02:05:46.021Z,1.50
2022-08-23T02:08:32.270Z,1.50
2022-08-23T02:11:00.983Z,1.60
2022-08-23T02:13:30.915Z,1.10
2022-08-23T02:15:59.657Z,2.23
2022-08-23T02:18:28.337Z,1.43
2022-08-23T02:20:56.999Z,2.37
2022-08-23T02:23:25.578Z,1.33
2022-08-23T02:25:54.342Z,2.10
2022-08-23T02:28:24.472Z,1.23
2022-08-23T02:30:54.898Z,2.17
2022-08-23T02:33:24.248Z,1.20
2022-08-23T02:35:52.898Z,1.30
2022-08-23T02:38:21.398Z,1.43
2022-08-23T02:40:53.039Z,1.13
2022-08-23T02:43:29.831Z,1.60
2022-08-23T02:46:00.064Z,1.60
2022-08-23T02:48:28.585Z,1.40
2022-08-23T02:51:00.906Z,1.33
2022-08-23T02:53:29.435Z,2.23
2022-08-23T02:55:58.223Z,1.53
2022-08-23T02:58:26.843Z,1.27
2022-08-23T03:00:55.396Z,1.50
2022-08-23T03:03:25.811Z,1.30
2022-08-23T03:05:54.887Z,1.50
2022-08-23T03:08:32.490Z,1.20
2022-08-23T03:11:01.075Z,1.50
2022-08-23T03:13:39.067Z,1.50
2022-08-23T03:16:08.407Z,1.77
2022-08-23T03:18:39.162Z,2.27
2022-08-23T03:21:09.218Z,2.93
2022-08-23T03:23:39.138Z,3.53
2022-08-23T03:26:09.199Z,3.57
2022-08-23T03:28:38.714Z,3.07
2022-08-23T03:31:08.975Z,2.70
2022-08-23T03:33:39.163Z,3.00
2022-08-23T03:36:09.442Z,2.70
2022-08-23T03:38:39.616Z,2.40
2022-08-23T03:41:09.134Z,3.20
2022-08-23T03:43:38.265Z,6.47
2022-08-23T03:46:08.433Z,7.43
2022-08-23T03:48:39.089Z,5.57
2022-08-23T03:51:07.750Z,3.97
2022-08-23T03:53:36.211Z,2.57
2022-08-23T03:56:04.966Z,2.27
2022-08-23T03:58:33.486Z,2.83
2022-08-23T04:01:01.966Z,2.30
2022-08-23T04:03:30.518Z,1.90
2022-08-23T04:06:00.393Z,2.50
2022-08-23T04:08:33.656Z,2.73
2022-08-23T04:11:02.643Z,1.90
2022-08-23T04:13:31.267Z,1.93
2022-08-23T04:16:02.945Z,2.07
2022-08-23T04:18:32.600Z,1.83
2022-08-23T04:21:04.602Z,5.13
2022-08-23T04:23:33.163Z,1.40
2022-08-23T04:26:01.903Z,1.70
2022-08-23T04:28:31.474Z,1.70
2022-08-23T04:31:00.866Z,1.53
2022-08-23T04:33:31.766Z,1.60
2022-08-23T04:36:02.568Z,1.47
2022-08-23T04:38:31.123Z,1.60
2022-08-23T04:41:17.024Z,1.70
2022-08-23T04:43:45.706Z,1.43
2022-08-23T04:46:16.045Z,1.57
2022-08-23T04:48:45.276Z,1.40
2022-08-23T04:51:15.334Z,1.43
2022-08-23T04:53:44.102Z,1.30
2022-08-23T04:56:12.588Z,1.50
2022-08-23T04:58:41.327Z,1.53
2022-08-23T05:01:11.814Z,1.40
2022-08-23T05:03:41.081Z,1.67
2022-08-23T05:06:10.093Z,1.43
2022-08-23T05:08:40.135Z,1.33
2022-08-23T05:11:10.241Z,1.30
2022-08-23T05:13:39.103Z,1.40
2022-08-23T05:16:08.284Z,1.50
2022-08-23T05:18:36.811Z,1.40
2022-08-23T05:21:05.534Z,1.33
2022-08-23T05:23:34.286Z,1.50
2022-08-23T05:26:04.543Z,2.00
2022-08-23T05:28:34.855Z,1.50
2022-08-23T05:31:05.364Z,1.30
2022-08-23T05:33:34.989Z,1.50
2022-08-23T05:36:04.881Z,1.70
2022-08-23T05:38:34.259Z,1.67
2022-08-23T05:41:05.400Z,1.70
2022-08-23T05:43:36.271Z,1.77
2022-08-23T05:46:12.175Z,1.90
2022-08-23T05:48:42.760Z,1.70
2022-08-23T05:51:12.918Z,2.00
2022-08-23T05:53:42.846Z,2.13
2022-08-23T05:56:15.561Z,1.80
2022-08-23T05:58:45.490Z,2.93
2022-08-23T06:01:15.338Z,1.80
2022-08-23T06:03:44.323Z,1.97
2022-08-23T06:06:15.215Z,2.10
2022-08-23T06:08:47.014Z,1.87
2022-08-23T06:11:20.524Z,4.10
2022-08-23T06:13:51.566Z,2.17
2022-08-23T06:16:22.596Z,1.77
2022-08-23T06:18:52.039Z,2.10
2022-08-23T06:21:20.502Z,2.13
2022-08-23T06:23:49.579Z,2.00
2022-08-23T06:26:21.214Z,2.77
2022-08-23T06:28:51.601Z,2.20
2022-08-23T06:31:41.870Z,2.50
2022-08-23T06:34:10.844Z,2.50
2022-08-23T06:36:39.831Z,2.70
2022-08-23T06:39:10.421Z,2.90
2022-08-23T06:41:40.420Z,2.83
2022-08-23T06:44:09.292Z,2.33
2022-08-23T06:46:38.624Z,2.90
2022-08-23T06:49:09.307Z,2.67
2022-08-23T06:51:39.973Z,3.90
2022-08-23T06:54:12.378Z,3.23
2022-08-23T06:56:44.037Z,5.90
2022-08-23T06:59:13.163Z,5.67
2022-08-23T07:01:46.008Z,6.27
2022-08-23T07:04:16.995Z,3.87
2022-08-23T07:06:45.708Z,2.90
2022-08-23T07:09:14.263Z,2.87
2022-08-23T07:11:44.214Z,2.87
2022-08-23T07:14:14.460Z,3.10
2022-08-23T07:16:50.187Z,2.47
2022-08-23T07:19:19.963Z,2.67
2022-08-23T07:21:48.943Z,2.50
2022-08-23T07:24:19.145Z,2.70
2022-08-23T07:26:49.911Z,2.70
2022-08-23T07:29:19.738Z,2.80
2022-08-23T07:31:50.712Z,3.27
2022-08-23T07:34:19.399Z,2.90
2022-08-23T07:36:49.278Z,5.10
2022-08-23T07:39:18.470Z,2.67
2022-08-23T07:41:49.398Z,2.70
2022-08-23T07:44:18.650Z,3.20
2022-08-23T07:46:49.047Z,3.13
2022-08-23T07:49:17.797Z,2.80
2022-08-23T07:51:48.939Z,2.70
2022-08-23T07:54:19.071Z,3.17
2022-08-23T07:56:49.066Z,3.07
2022-08-23T07:59:17.527Z,3.17
2022-08-23T08:01:46.418Z,3.13
2022-08-23T08:04:14.998Z,3.50
2022-08-23T08:06:46.290Z,2.90
2022-08-23T08:09:16.040Z,3.37
2022-08-23T08:11:47.365Z,2.87
2022-08-23T08:14:18.464Z,2.90
2022-08-23T08:16:48.690Z,3.17
2022-08-23T08:19:19.277Z,3.87
2022-08-23T08:21:48.870Z,6.67
2022-08-23T08:24:18.378Z,5.77
2022-08-23T08:26:47.439Z,3.43
2022-08-23T08:29:17.385Z,3.23
2022-08-23T08:31:52.391Z,3.73
2022-08-23T08:34:23.003Z,2.63
2022-08-23T08:36:54.403Z,3.33
2022-08-23T08:39:24.749Z,3.23
2022-08-23T08:42:06.139Z,4.67
2022-08-23T08:44:42.735Z,3.10
2022-08-23T08:47:17.170Z,2.73
2022-08-23T08:49:49.198Z,2.90
2022-08-23T08:52:20.110Z,5.17
2022-08-23T08:54:53.323Z,4.00
2022-08-23T08:57:27.697Z,2.30
2022-08-23T09:00:01.103Z,2.57
2022-08-23T09:02:34.210Z,2.40
2022-08-23T09:05:05.320Z,2.43
2022-08-23T09:07:42.776Z,3.77
2022-08-23T09:10:22.879Z,6.03
2022-08-23T09:12:56.670Z,2.67
2022-08-23T09:15:35.797Z,3.60
2022-08-23T09:18:10.784Z,2.80
2022-08-23T09:20:40.540Z,2.03
2022-08-23T09:23:13.311Z,1.70
2022-08-23T09:25:42.124Z,1.93
2022-08-23T09:28:11.090Z,1.70
2022-08-23T09:30:50.842Z,5.20
2022-08-23T09:33:22.103Z,6.20
2022-08-23T09:36:15.518Z,3.07
2022-08-23T09:38:52.987Z,2.13
2022-08-23T09:41:27.150Z,1.67
2022-08-23T09:43:56.670Z,1.40
2022-08-23T09:46:31.080Z,1.40
2022-08-23T09:49:01.416Z,1.63
2022-08-23T09:51:35.127Z,1.30
2022-08-23T09:54:07.962Z,1.40
2022-08-23T09:56:39.105Z,1.20
2022-08-23T09:59:26.844Z,3.60
2022-08-23T10:01:59.000Z,2.50
2022-08-23T10:04:32.917Z,2.23
2022-08-23T10:07:02.585Z,2.63
2022-08-23T10:09:32.715Z,1.67
2022-08-23T10:12:02.928Z,2.00
2022-08-23T10:14:32.958Z,1.60
2022-08-23T10:17:10.338Z,1.50
2022-08-23T10:19:47.761Z,1.77
2022-08-23T10:22:21.025Z,1.43
2022-08-23T10:24:53.843Z,1.57
2022-08-23T10:27:49.431Z,2.57
2022-08-23T10:30:20.990Z,1.50
2022-08-23T10:32:57.405Z,2.13
2022-08-23T10:35:33.454Z,1.73
2022-08-23T10:38:40.284Z,2.50
2022-08-23T10:41:25.818Z,1.70
2022-08-23T10:44:02.013Z,1.50
2022-08-23T10:46:32.136Z,1.40
2022-08-23T10:49:03.101Z,1.97
2022-08-23T10:51:35.474Z,1.97
2022-08-23T10:54:06.394Z,1.80
2022-08-23T10:56:36.582Z,1.47
2022-08-23T10:59:10.314Z,1.33
2022-08-23T11:01:44.674Z,1.50
2022-08-23T11:04:23.239Z,1.13
2022-08-23T11:06:53.712Z,0.90
2022-08-23T11:09:50.210Z,1.23
2022-08-23T11:12:34.431Z,1.20
2022-08-23T11:15:12.808Z,1.10
2022-08-23T11:18:03.471Z,1.30
2022-08-23T11:21:00.939Z,1.37
2022-08-23T11:23:55.454Z,1.20
2022-08-23T11:27:07.261Z,7.00
2022-08-23T11:29:38.015Z,4.43
2022-08-23T11:32:32.580Z,2.63
2022-08-23T11:35:09.477Z,1.37
2022-08-23T11:37:57.213Z,2.30
2022-08-23T11:40:55.839Z,1.20
2022-08-23T11:43:31.764Z,1.17
2022-08-23T11:46:34.576Z,1.00
2022-08-23T11:49:29.343Z,1.97
2022-08-23T11:52:04.517Z,1.47
2022-08-23T11:54:56.479Z,1.40
2022-08-23T11:57:37.433Z,1.80
2022-08-23T12:00:19.144Z,1.40
2022-08-23T12:03:02.886Z,1.07
2022-08-23T12:06:09.996Z,1.20
2022-08-23T12:08:49.881Z,1.13
2022-08-23T12:11:20.753Z,1.20
2022-08-23T12:13:58.799Z,1.63
2022-08-23T12:16:37.347Z,1.80
2022-08-23T12:19:13.092Z,1.40
2022-08-23T12:21:50.878Z,1.50
2022-08-23T12:24:27.822Z,1.30
2022-08-23T12:27:13.035Z,1.27
2022-08-23T12:29:53.731Z,1.47
2022-08-23T12:32:31.188Z,1.43
2022-08-23T12:35:13.393Z,1.30
2022-08-23T12:37:46.065Z,1.50
2022-08-23T12:40:17.582Z,1.50
2022-08-23T12:42:47.878Z,1.57
2022-08-23T12:45:20.290Z,1.30
2022-08-23T12:47:59.104Z,1.40
2022-08-23T12:50:32.753Z,1.20
2022-08-23T12:53:04.116Z,1.73
2022-08-23T12:55:35.434Z,1.70
2022-08-23T12:58:06.002Z,1.80
2022-08-23T13:00:37.401Z,2.07
2022-08-23T13:03:11.874Z,2.37
2022-08-23T13:05:43.710Z,2.07
2022-08-23T13:08:14.351Z,1.70
2022-08-23T13:10:44.619Z,1.43
2022-08-23T13:13:26.427Z,2.00
2022-08-23T13:15:57.968Z,3.53
2022-08-23T13:18:32.898Z,1.73
2022-08-23T13:21:21.647Z,1.73
2022-08-23T13:23:50.549Z,2.17
2022-08-23T13:26:29.447Z,1.50
2022-08-23T13:29:16.735Z,1.40
2022-08-23T13:32:02.687Z,1.60
2022-08-23T13:34:34.118Z,5.57
2022-08-23T13:37:05.379Z,13.17
2022-08-23T13:39:34.579Z,10.30
2022-08-23T13:42:03.672Z,15.97
2022-08-23T13:44:34.543Z,8.17
2022-08-23T13:47:21.289Z,5.60
2022-08-23T13:49:49.945Z,3.90
2022-08-23T13:52:50.547Z,3.10
2022-08-23T13:55:07.484Z,6.80
2022-08-23T13:57:40.268Z,4.90
2022-08-23T14:00:15.345Z,12.47
2022-08-23T14:02:48.967Z,12.13
2022-08-23T14:05:19.742Z,8.43
2022-08-23T14:07:48.870Z,5.20
2022-08-23T14:10:18.348Z,5.63
2022-08-23T14:12:48.616Z,4.33
2022-08-23T14:15:19.345Z,3.20
2022-08-23T14:17:49.920Z,2.40
2022-08-23T14:20:44.013Z,4.50
2022-08-23T14:23:12.026Z,4.87
2022-08-23T14:25:41.127Z,3.37
2022-08-23T14:28:09.675Z,2.93
2022-08-23T14:30:39.612Z,2.47
2022-08-23T14:33:08.313Z,2.90
2022-08-23T14:35:36.919Z,3.40
2022-08-23T14:38:05.563Z,3.00
2022-08-23T14:40:34.590Z,3.80
2022-08-23T14:43:03.352Z,1.53
2022-08-23T14:45:32.457Z,2.13
2022-08-23T14:48:02.776Z,2.10
2022-08-23T14:50:31.498Z,2.07
2022-08-23T14:53:00.259Z,1.83
2022-08-23T14:55:28.948Z,2.03
2022-08-23T14:57:57.695Z,2.60
2022-08-23T15:00:26.419Z,2.00
2022-08-23T15:02:55.103Z,2.83
2022-08-23T15:05:25.334Z,2.40
2022-08-23T15:07:53.848Z,1.80
2022-08-23T15:13:26.128Z,2.00
2022-08-23T15:15:58.986Z,2.27
2022-08-23T15:18:28.154Z,2.97
2022-08-23T15:20:58.127Z,2.30
2022-08-23T15:23:26.731Z,2.03
2022-08-23T15:25:55.589Z,1.83
2022-08-23T15:28:25.370Z,2.00
2022-08-23T15:30:54.442Z,2.10
2022-08-23T15:33:30.689Z,2.70
2022-08-23T15:36:01.920Z,3.20
2022-08-23T15:38:32.526Z,2.80
2022-08-23T15:41:01.481Z,1.90
2022-08-23T15:43:34.443Z,2.00
2022-08-23T15:46:08.331Z,1.90
2022-08-23T15:48:43.617Z,2.67
2022-08-23T15:51:13.714Z,2.10
2022-08-23T15:53:42.798Z,2.07
2022-08-23T15:56:13.746Z,1.63
2022-08-23T15:58:42.832Z,2.53
2022-08-23T16:01:12.022Z,1.67
2022-08-23T16:03:42.406Z,1.90
2022-08-23T16:06:14.901Z,1.87
2022-08-23T16:08:47.241Z,2.27
2022-08-23T16:11:15.815Z,2.40
2022-08-23T16:13:46.255Z,1.60
2022-08-23T16:16:19.080Z,2.20
2022-08-23T16:18:47.704Z,4.40
2022-08-23T16:21:17.973Z,5.37
2022-08-23T16:23:46.545Z,3.27
2022-08-23T16:26:16.668Z,2.30
2022-08-23T16:28:53.663Z,2.00
2022-08-23T16:31:22.862Z,2.30
2022-08-23T16:34:09.830Z,2.20
2022-08-23T16:36:40.604Z,2.17
2022-08-23T16:39:10.060Z,2.23
2022-08-23T16:41:38.561Z,2.60
2022-08-23T16:44:07.452Z,2.07
2022-08-23T16:46:36.039Z,2.00
2022-08-23T16:49:05.230Z,2.20
2022-08-23T16:51:34.373Z,2.27
2022-08-23T16:54:04.564Z,2.50
2022-08-23T16:56:34.132Z,2.33
2022-08-23T16:59:03.143Z,2.43
2022-08-23T17:01:33.130Z,2.60
2022-08-23T17:04:01.740Z,2.70
2022-08-23T17:06:30.405Z,1.93
2022-08-23T17:08:58.938Z,2.20
2022-08-23T17:11:32.783Z,2.10
2022-08-23T17:14:05.368Z,2.10
2022-08-23T17:16:34.415Z,3.30
2022-08-23T17:19:03.022Z,2.50
2022-08-23T17:21:31.870Z,10.97
2022-08-23T17:24:00.467Z,8.10
2022-08-23T17:26:30.419Z,8.50
2022-08-23T17:28:58.966Z,6.37
2022-08-23T17:31:28.278Z,15.60
2022-08-23T17:34:02.522Z,17.93
2022-08-23T17:36:35.908Z,10.53
2022-08-23T17:39:06.393Z,12.07
2022-08-23T17:41:36.497Z,12.77
2022-08-23T17:44:05.555Z,10.23
2022-08-23T17:46:35.708Z,14.60
2022-08-23T17:49:04.671Z,9.33
2022-08-23T17:51:34.383Z,6.37
2022-08-23T17:54:03.088Z,16.77
2022-08-23T17:56:32.038Z,17.00
2022-08-23T17:59:02.002Z,23.37
2022-08-23T18:01:31.402Z,15.43
2022-08-23T18:04:00.360Z,4.20
2022-08-23T18:06:29.121Z,3.90
2022-08-23T18:08:57.636Z,5.83
2022-08-23T18:11:26.404Z,11.10
2022-08-23T18:13:54.999Z,13.17
2022-08-23T18:16:31.709Z,13.70
2022-08-23T18:19:03.811Z,4.90
2022-08-23T18:21:33.124Z,4.77
2022-08-23T18:24:01.781Z,6.50
2022-08-23T18:26:47.790Z,6.80
2022-08-23T18:29:16.440Z,5.60
2022-08-23T18:31:48.669Z,4.23
2022-08-23T18:34:17.653Z,4.53
2022-08-23T18:36:46.308Z,3.80
2022-08-23T18:39:15.778Z,3.80
2022-08-23T18:41:44.635Z,3.17
2022-08-23T18:44:13.395Z,3.90
2022-08-23T18:46:43.508Z,5.47
2022-08-23T18:49:13.610Z,9.67
2022-08-23T18:51:42.847Z,8.00
2022-08-23T18:54:11.383Z,7.97
2022-08-23T18:56:39.992Z,3.40
2022-08-23T18:59:08.567Z,3.10
2022-08-23T19:01:40.881Z,3.50
2022-08-23T19:04:10.667Z,4.20
2022-08-23T19:06:41.131Z,3.40
2022-08-23T19:09:11.273Z,2.87
2022-08-23T19:11:42.454Z,5.37
2022-08-23T19:14:12.665Z,13.20
2022-08-23T19:16:47.188Z,22.27
2022-08-23T19:19:16.891Z,8.57
2022-08-23T19:21:46.934Z,6.03
2022-08-23T19:24:15.710Z,24.47
2022-08-23T19:26:47.649Z,17.03
2022-08-23T19:29:18.555Z,12.43
2022-08-23T19:31:48.341Z,18.93
2022-08-23T19:34:17.512Z,11.30
2022-08-23T19:36:54.649Z,8.70
2022-08-23T19:39:29.248Z,10.53
2022-08-23T19:41:58.153Z,7.53
2022-08-23T19:44:26.838Z,6.77
2022-08-23T19:46:56.408Z,11.93
2022-08-23T19:49:25.086Z,5.93
2022-08-23T19:51:55.270Z,4.57
2022-08-23T19:54:25.865Z,6.47
2022-08-23T19:56:58.059Z,3.60
2022-08-23T19:59:29.495Z,4.07
2022-08-23T20:01:59.225Z,6.13
2022-08-23T20:04:29.450Z,4.40
2022-08-23T20:07:00.223Z,4.17
2022-08-23T20:09:29.981Z,5.13
2022-08-23T20:11:59.123Z,3.50
2022-08-23T20:14:29.070Z,3.20
2022-08-23T20:16:57.977Z,4.60
2022-08-23T20:19:26.616Z,2.83
2022-08-23T20:22:15.844Z,3.77
2022-08-23T20:24:52.426Z,3.30
2022-08-23T20:27:25.401Z,5.23
2022-08-23T20:30:01.316Z,3.00
2022-08-23T20:32:31.225Z,4.53
2022-08-23T20:35:00.459Z,3.40
2022-08-23T20:37:29.187Z,3.53
2022-08-23T20:39:59.380Z,3.77
2022-08-23T20:42:28.675Z,5.93
2022-08-23T20:44:57.316Z,4.40
2022-08-23T20:47:26.058Z,6.03
2022-08-23T20:49:54.641Z,3.27
2022-08-23T20:52:23.222Z,4.10
2022-08-23T20:54:52.183Z,5.13
2022-08-23T20:57:22.002Z,6.20
2022-08-23T20:59:50.526Z,3.40
2022-08-23T21:02:19.187Z,3.83
2022-08-23T21:04:47.899Z,4.43
2022-08-23T21:07:16.514Z,3.50
2022-08-23T21:09:45.083Z,3.60
2022-08-23T21:12:13.638Z,5.07
2022-08-23T21:14:43.554Z,4.23
2022-08-23T21:17:12.152Z,2.93
2022-08-23T21:19:40.944Z,2.57
2022-08-23T21:22:09.434Z,3.63
2022-08-23T21:24:38.558Z,2.50
2022-08-23T21:27:09.743Z,4.07
2022-08-23T21:29:38.868Z,2.30
2022-08-23T21:32:09.355Z,3.90
2022-08-23T21:34:38.129Z,2.50
2022-08-23T21:37:07.139Z,2.30
2022-08-23T21:39:35.763Z,5.20
2022-08-23T21:42:14.969Z,2.00
2022-08-23T21:44:43.990Z,2.77
2022-08-23T21:47:14.304Z,3.03
2022-08-23T21:49:42.787Z,4.13
2022-08-23T21:52:11.696Z,4.23
2022-08-23T21:54:43.443Z,2.33
2022-08-23T21:57:12.601Z,1.97
2022-08-23T21:59:41.389Z,1.80
2022-08-23T22:02:10.063Z,2.00
2022-08-23T22:04:40.514Z,1.87
2022-08-23T22:07:09.154Z,1.73
2022-08-23T22:09:37.849Z,2.20
2022-08-23T22:12:07.635Z,2.90
2022-08-23T22:14:36.504Z,2.30
